Terminal Aerodrome Forecast
Issued by NWS

Home | Current Version | Previous Version | Text Only | Print | Product List | Glossary On
Versions: 1 2 3 4 5 6 7 8 9 10 11 12 13 14 15
000
FTUS43 KIND 222324
TAFHUF
TAF
KHUF 222324Z 2300/2324 20006KT P6SM VCSH BKN050
     FM230200 33007KT P6SM VCSH SCT006 OVC015
      TEMPO 2302/2306 5SM -SHRA BR
     FM230700 29004KT 5SM SHRA OVC040
     FM230900 34005KT 6SM SHRA OVC015
     FM231700 33009KT 4SM BR VCSH OVC008
     FM231900 33010KT P6SM BKN020=

USA.gov is the U.S. government's official web portal to all federal, state and local government web resources and services.